Dyer Brook, Maine
Current Conditions -  °F | °C
As of 9:53 PM on Monday 22 Dec 2014 (Local Time) from KHUL Reporting Station
Overcast Overcast  
Wind Chill: 28°   Ceiling: 1700
Heat Index: 28°   Visibility: 10mi
Dew Point: 24°   Wind: 0mph
Humidity: 85%   Direction: NA
Pressure: 30.39"   Gusts: NA
Location:  46.0051°N, 68.2487°W
Report Text: KHUL 230253Z AUTO 00000KT 10SM BKN017 OVC039 M02/M04 A3039 RMK AO2 SLP299 T10221044 58004
Loading
Personal Weather Stations






























Interactive Weather Map New forecast layout! Learn more

10-Day Weather Forecast

Advertisements
Track Severe Weather on mobile